This is the latest recevied weather packets stored in our database for station/object IU8HRV-10. If no packets are shown the sender has not sent any weather packets the latest 10 day(s).
| Time | Temp. | Humidity | Pressure | Rain* | Wind** | Luminosity | Snow |
|---|---|---|---|---|---|---|---|
| 1777754916 | 22.78° C | 31% | 1022 hPa | - | - | - | - |
| 1777752213 | 24.44° C | 29% | 1022 hPa | - | - | - | - |
| 1777751312 | 24.44° C | 29% | 1022 hPa | - | - | - | - |
| 1777747707 | 25° C | 29% | 1021 hPa | - | - | - | - |
| 1777745904 | 25.56° C | 29% | 1021 hPa | - | - | - | - |
| 1777742300 | 28.33° C | 26% | 1020 hPa | - | - | - | - |
| 1777738696 | 30° C | 24% | 1020 hPa | - | - | - | - |
| 1777736894 | 31.11° C | 23% | 1020 hPa | - | - | - | - |
| 1777735993 | 31.11° C | 23% | 1020 hPa | - | - | - | - |
| 1777735091 | 30.56° C | 24% | 1020 hPa | - | - | - | - |
| 1777732388 | 31.11° C | 23% | 1021 hPa | - | - | - | - |
| 1777731487 | 30° C | 23% | 1020 hPa | - | - | - | - |
| 1777728783 | 28.89° C | 24% | 1021 hPa | - | - | - | - |
| 1777727882 | 28.33° C | 25% | 1021 hPa | - | - | - | - |
| 1777726981 | 27.22° C | 25% | 1021 hPa | - | - | - | - |
| 1777724278 | 25° C | 27% | 1021 hPa | - | - | - | - |
| 1777723377 | 23.89° C | 28% | 1021 hPa | - | - | - | - |
| 1777722476 | 23.33° C | 28% | 1021 hPa | - | - | - | - |
| 1777721575 | 22.78° C | 29% | 1021 hPa | - | - | - | - |
| 1777720673 | 22.78° C | 29% | 1021 hPa | - | - | - | - |
| 1777719772 | 22.22° C | 29% | 1021 hPa | - | - | - | - |
| 1777718871 | 21.67° C | 30% | 1021 hPa | - | - | - | - |
| 1777717970 | 21.67° C | 30% | 1021 hPa | - | - | - | - |
| 1777717069 | 21.67° C | 30% | 1021 hPa | - | - | - | - |
| 1777716168 | 21.11° C | 31% | 1021 hPa | - | - | - | - |
* Rain since midnight (hover to see other rain measurements)
** Current wind speed in m/s (hover to see current wind gust speed)